sensor_id;sensor_type;location;lat;lon;timestamp;temperature;humidity
73955;DHT22;62306;52.516;13.290;2024-03-23T00:53:21;9.30;99.90
73955;DHT22;62306;52.516;13.290;2024-03-23T00:55:48;9.40;99.90
73955;DHT22;62306;52.516;13.290;2024-03-23T00:58:14;9.30;99.90
73955;DHT22;62306;52.516;13.290;2024-03-23T01:00:41;9.30;99.90
73955;DHT22;62306;52.516;13.290;2024-03-23T01:03:07;9.30;99.90
73955;DHT22;62306;52.516;13.290;2024-03-23T01:05:34;9.20;99.90
73955;DHT22;62306;52.516;13.290;2024-03-23T01:08:00;9.30;99.90
73955;DHT22;62306;52.516;13.290;2024-03-23T01:10:29;9.30;99.90
73955;DHT22;62306;52.516;13.290;2024-03-23T01:12:54;9.30;99.90
73955;DHT22;62306;52.516;13.290;2024-03-23T01:15:21;9.30;99.90
73955;DHT22;62306;52.516;13.290;2024-03-23T01:17:47;9.20;99.90
73955;DHT22;62306;52.516;13.290;2024-03-23T01:20:14;9.30;99.90
73955;DHT22;62306;52.516;13.290;2024-03-23T01:22:40;9.20;99.90
73955;DHT22;62306;52.516;13.290;2024-03-23T01:25:07;9.20;99.90
73955;DHT22;62306;52.516;13.290;2024-03-23T01:27:35;9.20;99.90
73955;DHT22;62306;52.516;13.290;2024-03-23T01:30:01;9.30;99.90
73955;DHT22;62306;52.516;13.290;2024-03-23T01:32:27;9.30;99.90
73955;DHT22;62306;52.516;13.290;2024-03-23T01:34:54;9.20;99.90
73955;DHT22;62306;52.516;13.290;2024-03-23T01:37:20;9.30;99.90
73955;DHT22;62306;52.516;13.290;2024-03-23T01:39:47;9.20;99.90
73955;DHT22;62306;52.516;13.290;2024-03-23T01:42:13;9.20;99.90
73955;DHT22;62306;52.516;13.290;2024-03-23T01:44:41;9.20;99.90
73955;DHT22;62306;52.516;13.290;2024-03-23T01:47:07;9.30;99.90
73955;DHT22;62306;52.516;13.290;2024-03-23T01:49:35;9.20;99.90
73955;DHT22;62306;52.516;13.290;2024-03-23T01:52:02;9.60;99.90
73955;DHT22;62306;52.516;13.290;2024-03-23T01:54:29;9.10;99.90
73955;DHT22;62306;52.516;13.290;2024-03-23T01:56:56;9.10;99.90
73955;DHT22;62306;52.516;13.290;2024-03-23T01:59:23;9.10;99.90
73955;DHT22;62306;52.516;13.290;2024-03-23T02:01:51;9.10;99.90
73955;DHT22;62306;52.516;13.290;2024-03-23T02:04:17;9.10;99.90
73955;DHT22;62306;52.516;13.290;2024-03-23T02:06:43;9.10;99.90
73955;DHT22;62306;52.516;13.290;2024-03-23T02:09:10;9.10;99.90
73955;DHT22;62306;52.516;13.290;2024-03-23T02:11:37;9.10;99.90
73955;DHT22;62306;52.516;13.290;2024-03-23T02:14:03;9.10;99.90
73955;DHT22;62306;52.516;13.290;2024-03-23T02:16:29;9.10;99.90
73955;DHT22;62306;52.516;13.290;2024-03-23T02:18:58;9.10;99.90
73955;DHT22;62306;52.516;13.290;2024-03-23T02:21:23;9.10;99.90
73955;DHT22;62306;52.516;13.290;2024-03-23T02:23:52;9.20;99.90
73955;DHT22;62306;52.516;13.290;2024-03-23T02:26:18;9.20;99.90
73955;DHT22;62306;52.516;13.290;2024-03-23T02:28:45;9.20;99.90
73955;DHT22;62306;52.516;13.290;2024-03-23T02:31:11;9.20;99.90
73955;DHT22;62306;52.516;13.290;2024-03-23T02:33:38;9.20;99.90
73955;DHT22;62306;52.516;13.290;2024-03-23T02:36:04;9.20;99.90
73955;DHT22;62306;52.516;13.290;2024-03-23T02:38:31;9.10;99.90
73955;DHT22;62306;52.516;13.290;2024-03-23T02:41:03;9.10;99.90
73955;DHT22;62306;52.516;13.290;2024-03-23T02:43:30;9.10;99.90
73955;DHT22;62306;52.516;13.290;2024-03-23T02:45:56;8.10;99.90
73955;DHT22;62306;52.516;13.290;2024-03-23T02:48:22;9.00;99.90
73955;DHT22;62306;52.516;13.290;2024-03-23T02:50:49;9.00;99.90
73955;DHT22;62306;52.516;13.290;2024-03-23T02:53:16;9.00;99.90
73955;DHT22;62306;52.516;13.290;2024-03-23T02:55:42;8.80;99.90
73955;DHT22;62306;52.516;13.290;2024-03-23T02:58:10;9.00;99.90
73955;DHT22;62306;52.516;13.290;2024-03-23T03:00:36;9.00;99.90
73955;DHT22;62306;52.516;13.290;2024-03-23T03:03:03;9.00;99.90
73955;DHT22;62306;52.516;13.290;2024-03-23T03:05:29;9.00;99.90
73955;DHT22;62306;52.516;13.290;2024-03-23T03:07:56;9.00;99.90
73955;DHT22;62306;52.516;13.290;2024-03-23T03:10:22;9.00;99.90
73955;DHT22;62306;52.516;13.290;2024-03-23T03:12:49;9.00;99.90
73955;DHT22;62306;52.516;13.290;2024-03-23T03:15:16;9.00;99.90
73955;DHT22;62306;52.516;13.290;2024-03-23T03:17:43;9.00;99.90
73955;DHT22;62306;52.516;13.290;2024-03-23T03:20:10;9.00;99.90
73955;DHT22;62306;52.516;13.290;2024-03-23T03:22:39;9.00;99.90
73955;DHT22;62306;52.516;13.290;2024-03-23T03:25:06;9.00;99.90
73955;DHT22;62306;52.516;13.290;2024-03-23T03:27:33;8.90;99.90
73955;DHT22;62306;52.516;13.290;2024-03-23T03:32:28;8.90;99.90
73955;DHT22;62306;52.516;13.290;2024-03-23T03:34:54;8.80;99.90
73955;DHT22;62306;52.516;13.290;2024-03-23T03:37:20;8.80;99.90
73955;DHT22;62306;52.516;13.290;2024-03-23T03:39:47;8.70;99.90
73955;DHT22;62306;52.516;13.290;2024-03-23T03:42:13;8.80;99.90
73955;DHT22;62306;52.516;13.290;2024-03-23T03:44:40;8.80;99.90
73955;DHT22;62306;52.516;13.290;2024-03-23T03:47:06;8.50;99.90
73955;DHT22;62306;52.516;13.290;2024-03-23T03:49:34;8.70;99.90
73955;DHT22;62306;52.516;13.290;2024-03-23T03:52:00;8.70;99.90
73955;DHT22;62306;52.516;13.290;2024-03-23T03:54:27;8.60;99.90
73955;DHT22;62306;52.516;13.290;2024-03-23T03:56:53;8.60;99.90
73955;DHT22;62306;52.516;13.290;2024-03-23T03:59:20;8.50;99.90
73955;DHT22;62306;52.516;13.290;2024-03-23T04:01:46;8.50;99.90
73955;DHT22;62306;52.516;13.290;2024-03-23T04:04:13;8.60;99.90
73955;DHT22;62306;52.516;13.290;2024-03-23T04:06:41;8.50;99.90
73955;DHT22;62306;52.516;13.290;2024-03-23T04:09:07;8.40;99.90
73955;DHT22;62306;52.516;13.290;2024-03-23T04:11:33;8.60;99.90
73955;DHT22;62306;52.516;13.290;2024-03-23T04:14:00;8.60;99.90
73955;DHT22;62306;52.516;13.290;2024-03-23T04:16:27;8.50;99.90
73955;DHT22;62306;52.516;13.290;2024-03-23T04:18:54;8.40;99.90
73955;DHT22;62306;52.516;13.290;2024-03-23T04:21:21;8.30;99.90
73955;DHT22;62306;52.516;13.290;2024-03-23T04:23:49;8.30;99.90
73955;DHT22;62306;52.516;13.290;2024-03-23T04:26:15;8.20;99.90
73955;DHT22;62306;52.516;13.290;2024-03-23T04:28:42;8.20;99.90
73955;DHT22;62306;52.516;13.290;2024-03-23T04:31:08;8.10;99.90
73955;DHT22;62306;52.516;13.290;2024-03-23T04:33:35;8.00;99.90
73955;DHT22;62306;52.516;13.290;2024-03-23T04:36:01;8.10;99.90
73955;DHT22;62306;52.516;13.290;2024-03-23T04:38:29;8.10;99.90
73955;DHT22;62306;52.516;13.290;2024-03-23T04:40:58;8.10;99.90
73955;DHT22;62306;52.516;13.290;2024-03-23T04:43:26;8.10;99.90
73955;DHT22;62306;52.516;13.290;2024-03-23T04:45:53;8.10;99.90
73955;DHT22;62306;52.516;13.290;2024-03-23T04:48:21;8.10;99.90
73955;DHT22;62306;52.516;13.290;2024-03-23T04:50:48;8.00;99.90
73955;DHT22;62306;52.516;13.290;2024-03-23T04:53:16;8.10;99.90
73955;DHT22;62306;52.516;13.290;2024-03-23T04:55:43;8.10;99.90
73955;DHT22;62306;52.516;13.290;2024-03-23T04:58:11;8.30;99.90
73955;DHT22;62306;52.516;13.290;2024-03-23T05:00:37;8.30;99.90
73955;DHT22;62306;52.516;13.290;2024-03-23T05:03:04;7.50;99.90
73955;DHT22;62306;52.516;13.290;2024-03-23T05:05:30;8.30;99.90
73955;DHT22;62306;52.516;13.290;2024-03-23T05:07:57;8.30;99.90
73955;DHT22;62306;52.516;13.290;2024-03-23T05:10:23;8.20;99.90
73955;DHT22;62306;52.516;13.290;2024-03-23T05:12:50;8.20;99.90
73955;DHT22;62306;52.516;13.290;2024-03-23T05:15:18;8.10;99.90
73955;DHT22;62306;52.516;13.290;2024-03-23T05:17:45;8.10;99.90
73955;DHT22;62306;52.516;13.290;2024-03-23T05:20:11;8.20;99.90
73955;DHT22;62306;52.516;13.290;2024-03-23T05:22:38;8.20;99.90
73955;DHT22;62306;52.516;13.290;2024-03-23T05:25:05;8.30;99.90
73955;DHT22;62306;52.516;13.290;2024-03-23T05:27:33;8.20;99.90
73955;DHT22;62306;52.516;13.290;2024-03-23T05:29:59;8.10;99.90
73955;DHT22;62306;52.516;13.290;2024-03-23T05:32:27;8.20;99.90
73955;DHT22;62306;52.516;13.290;2024-03-23T05:34:54;8.10;99.90
73955;DHT22;62306;52.516;13.290;2024-03-23T05:37:22;8.10;99.90
73955;DHT22;62306;52.516;13.290;2024-03-23T05:39:48;8.10;99.90
73955;DHT22;62306;52.516;13.290;2024-03-23T05:42:16;8.10;99.90
73955;DHT22;62306;52.516;13.290;2024-03-23T05:44:43;8.20;99.90
73955;DHT22;62306;52.516;13.290;2024-03-23T05:47:10;8.10;99.90
73955;DHT22;62306;52.516;13.290;2024-03-23T05:49:38;8.20;99.90
73955;DHT22;62306;52.516;13.290;2024-03-23T05:52:05;8.10;99.90
73955;DHT22;62306;52.516;13.290;2024-03-23T05:54:31;8.20;99.90
73955;DHT22;62306;52.516;13.290;2024-03-23T05:56:57;8.20;99.90
73955;DHT22;62306;52.516;13.290;2024-03-23T05:59:24;8.20;99.90
73955;DHT22;62306;52.516;13.290;2024-03-23T06:01:52;8.20;99.90
73955;DHT22;62306;52.516;13.290;2024-03-23T06:04:19;8.20;99.90
73955;DHT22;62306;52.516;13.290;2024-03-23T06:06:48;8.20;99.90
73955;DHT22;62306;52.516;13.290;2024-03-23T06:09:14;8.30;99.90
73955;DHT22;62306;52.516;13.290;2024-03-23T06:11:41;8.30;99.90
73955;DHT22;62306;52.516;13.290;2024-03-23T06:14:07;8.30;99.90
73955;DHT22;62306;52.516;13.290;2024-03-23T06:16:33;8.30;99.90
73955;DHT22;62306;52.516;13.290;2024-03-23T06:18:59;8.30;99.90
73955;DHT22;62306;52.516;13.290;2024-03-23T06:21:29;8.30;99.90
73955;DHT22;62306;52.516;13.290;2024-03-23T06:23:56;8.30;99.90
73955;DHT22;62306;52.516;13.290;2024-03-23T06:26:23;8.30;99.90
73955;DHT22;62306;52.516;13.290;2024-03-23T06:28:49;8.40;99.90
73955;DHT22;62306;52.516;13.290;2024-03-23T06:31:16;8.40;99.90
73955;DHT22;62306;52.516;13.290;2024-03-23T06:33:42;8.40;99.90
73955;DHT22;62306;52.516;13.290;2024-03-23T06:36:10;8.40;99.90
73955;DHT22;62306;52.516;13.290;2024-03-23T06:38:36;8.30;99.90
73955;DHT22;62306;52.516;13.290;2024-03-23T06:41:05;8.30;99.90
73955;DHT22;62306;52.516;13.290;2024-03-23T06:43:31;8.30;99.90
73955;DHT22;62306;52.516;13.290;2024-03-23T06:45:58;8.30;99.90
73955;DHT22;62306;52.516;13.290;2024-03-23T06:48:24;8.30;99.90
73955;DHT22;62306;52.516;13.290;2024-03-23T06:50:55;8.30;99.90
73955;DHT22;62306;52.516;13.290;2024-03-23T06:53:21;8.30;99.90
73955;DHT22;62306;52.516;13.290;2024-03-23T06:55:50;8.30;99.90
73955;DHT22;62306;52.516;13.290;2024-03-23T06:58:18;8.30;99.90
73955;DHT22;62306;52.516;13.290;2024-03-23T07:00:45;8.40;99.90
73955;DHT22;62306;52.516;13.290;2024-03-23T07:03:11;8.40;99.90
73955;DHT22;62306;52.516;13.290;2024-03-23T07:05:38;8.40;99.90
73955;DHT22;62306;52.516;13.290;2024-03-23T07:08:05;8.40;99.90
73955;DHT22;62306;52.516;13.290;2024-03-23T07:10:32;8.40;99.90
73955;DHT22;62306;52.516;13.290;2024-03-23T07:12:58;8.40;99.90
73955;DHT22;62306;52.516;13.290;2024-03-23T07:15:26;8.50;99.90
73955;DHT22;62306;52.516;13.290;2024-03-23T07:17:52;8.40;99.90
73955;DHT22;62306;52.516;13.290;2024-03-23T07:20:19;8.50;99.90
73955;DHT22;62306;52.516;13.290;2024-03-23T07:22:45;8.50;99.90
73955;DHT22;62306;52.516;13.290;2024-03-23T07:25:13;8.50;99.90
73955;DHT22;62306;52.516;13.290;2024-03-23T07:27:38;8.50;99.90
73955;DHT22;62306;52.516;13.290;2024-03-23T07:30:07;9.40;99.90
73955;DHT22;62306;52.516;13.290;2024-03-23T07:32:35;8.60;99.90
73955;DHT22;62306;52.516;13.290;2024-03-23T07:35:02;8.60;99.90
73955;DHT22;62306;52.516;13.290;2024-03-23T07:37:28;8.60;99.90
73955;DHT22;62306;52.516;13.290;2024-03-23T07:39:55;8.70;99.90
73955;DHT22;62306;52.516;13.290;2024-03-23T07:42:23;8.70;99.90
73955;DHT22;62306;52.516;13.290;2024-03-23T07:44:52;8.70;99.90
73955;DHT22;62306;52.516;13.290;2024-03-23T07:47:19;8.70;99.90
73955;DHT22;62306;52.516;13.290;2024-03-23T07:49:47;8.60;99.90
73955;DHT22;62306;52.516;13.290;2024-03-23T07:52:13;8.60;99.90
73955;DHT22;62306;52.516;13.290;2024-03-23T07:54:40;8.50;99.90
73955;DHT22;62306;52.516;13.290;2024-03-23T07:57:06;8.40;99.90
73955;DHT22;62306;52.516;13.290;2024-03-23T07:59:33;8.40;99.90
73955;DHT22;62306;52.516;13.290;2024-03-23T08:01:59;8.30;99.90
73955;DHT22;62306;52.516;13.290;2024-03-23T08:04:27;8.10;99.90
73955;DHT22;62306;52.516;13.290;2024-03-23T08:06:54;8.00;99.90
73955;DHT22;62306;52.516;13.290;2024-03-23T08:09:22;7.90;99.90
73955;DHT22;62306;52.516;13.290;2024-03-23T08:11:48;7.90;99.90
73955;DHT22;62306;52.516;13.290;2024-03-23T08:14:15;7.70;99.90
73955;DHT22;62306;52.516;13.290;2024-03-23T08:16:41;7.70;99.90
73955;DHT22;62306;52.516;13.290;2024-03-23T08:19:14;7.60;99.90
73955;DHT22;62306;52.516;13.290;2024-03-23T08:21:40;7.60;99.90
73955;DHT22;62306;52.516;13.290;2024-03-23T08:24:08;7.50;99.90
73955;DHT22;62306;52.516;13.290;2024-03-23T08:26:34;7.40;99.90
73955;DHT22;62306;52.516;13.290;2024-03-23T08:29:03;7.00;99.90
73955;DHT22;62306;52.516;13.290;2024-03-23T08:31:29;7.40;99.90
73955;DHT22;62306;52.516;13.290;2024-03-23T08:33:55;7.30;99.90
73955;DHT22;62306;52.516;13.290;2024-03-23T08:36:21;7.40;99.90
73955;DHT22;62306;52.516;13.290;2024-03-23T08:38:49;7.30;99.90
73955;DHT22;62306;52.516;13.290;2024-03-23T08:41:17;7.30;99.90
73955;DHT22;62306;52.516;13.290;2024-03-23T08:43:44;7.30;99.90
73955;DHT22;62306;52.516;13.290;2024-03-23T08:46:11;7.20;99.90
73955;DHT22;62306;52.516;13.290;2024-03-23T08:48:39;7.30;99.90
73955;DHT22;62306;52.516;13.290;2024-03-23T08:51:07;7.30;99.90
73955;DHT22;62306;52.516;13.290;2024-03-23T08:53:35;7.30;99.90
73955;DHT22;62306;52.516;13.290;2024-03-23T08:56:01;7.30;99.90
73955;DHT22;62306;52.516;13.290;2024-03-23T08:58:31;7.20;99.90
73955;DHT22;62306;52.516;13.290;2024-03-23T09:01:02;7.10;99.90
73955;DHT22;62306;52.516;13.290;2024-03-23T09:03:29;7.00;99.90
73955;DHT22;62306;52.516;13.290;2024-03-23T09:05:55;6.90;99.90
73955;DHT22;62306;52.516;13.290;2024-03-23T09:08:23;6.80;99.90
73955;DHT22;62306;52.516;13.290;2024-03-23T09:10:49;6.70;99.90
73955;DHT22;62306;52.516;13.290;2024-03-23T09:13:16;6.70;99.90
73955;DHT22;62306;52.516;13.290;2024-03-23T09:15:48;6.70;99.90
73955;DHT22;62306;52.516;13.290;2024-03-23T09:18:15;6.80;99.90
73955;DHT22;62306;52.516;13.290;2024-03-23T09:20:41;6.80;99.90
73955;DHT22;62306;52.516;13.290;2024-03-23T09:23:09;6.70;99.90
73955;DHT22;62306;52.516;13.290;2024-03-23T09:25:36;6.70;99.90
73955;DHT22;62306;52.516;13.290;2024-03-23T09:28:04;6.70;99.90
73955;DHT22;62306;52.516;13.290;2024-03-23T09:30:31;6.80;99.90
73955;DHT22;62306;52.516;13.290;2024-03-23T09:33:00;6.90;99.90
73955;DHT22;62306;52.516;13.290;2024-03-23T09:35:26;7.00;99.90
73955;DHT22;62306;52.516;13.290;2024-03-23T09:37:53;7.10;99.90
73955;DHT22;62306;52.516;13.290;2024-03-23T09:40:20;7.10;99.90
73955;DHT22;62306;52.516;13.290;2024-03-23T09:42:50;7.10;99.90
73955;DHT22;62306;52.516;13.290;2024-03-23T09:45:19;7.00;99.90
73955;DHT22;62306;52.516;13.290;2024-03-23T09:47:46;7.00;99.90
73955;DHT22;62306;52.516;13.290;2024-03-23T09:50:14;6.90;99.90
73955;DHT22;62306;52.516;13.290;2024-03-23T09:52:41;6.90;99.90
73955;DHT22;62306;52.516;13.290;2024-03-23T09:55:08;6.90;99.90
73955;DHT22;62306;52.516;13.290;2024-03-23T09:57:36;6.90;99.90
73955;DHT22;62306;52.516;13.290;2024-03-23T10:00:02;6.90;99.90
73955;DHT22;62306;52.516;13.290;2024-03-23T10:02:30;6.90;99.90
73955;DHT22;62306;52.516;13.290;2024-03-23T10:04:56;6.90;99.90
73955;DHT22;62306;52.516;13.290;2024-03-23T10:07:25;6.90;99.90
73955;DHT22;62306;52.516;13.290;2024-03-23T10:09:51;6.90;99.90
73955;DHT22;62306;52.516;13.290;2024-03-23T10:12:19;6.80;99.90
73955;DHT22;62306;52.516;13.290;2024-03-23T10:14:45;6.80;99.90
73955;DHT22;62306;52.516;13.290;2024-03-23T10:17:16;6.70;99.90
73955;DHT22;62306;52.516;13.290;2024-03-23T10:19:43;6.70;99.90
73955;DHT22;62306;52.516;13.290;2024-03-23T10:22:14;6.80;99.90
73955;DHT22;62306;52.516;13.290;2024-03-23T10:24:41;6.80;99.90
73955;DHT22;62306;52.516;13.290;2024-03-23T10:27:08;6.80;99.90
73955;DHT22;62306;52.516;13.290;2024-03-23T10:29:34;6.80;99.90
73955;DHT22;62306;52.516;13.290;2024-03-23T10:32:08;6.80;99.90
73955;DHT22;62306;52.516;13.290;2024-03-23T10:34:36;6.80;99.90
73955;DHT22;62306;52.516;13.290;2024-03-23T10:37:04;6.80;99.90
73955;DHT22;62306;52.516;13.290;2024-03-23T10:39:34;6.90;99.90
73955;DHT22;62306;52.516;13.290;2024-03-23T10:42:07;6.90;99.90
73955;DHT22;62306;52.516;13.290;2024-03-23T10:44:33;7.00;99.90
73955;DHT22;62306;52.516;13.290;2024-03-23T10:47:02;7.00;99.90
73955;DHT22;62306;52.516;13.290;2024-03-23T10:49:29;7.10;99.90
73955;DHT22;62306;52.516;13.290;2024-03-23T10:52:00;7.20;99.90
73955;DHT22;62306;52.516;13.290;2024-03-23T10:54:26;7.30;99.90
73955;DHT22;62306;52.516;13.290;2024-03-23T10:57:01;7.30;99.90
73955;DHT22;62306;52.516;13.290;2024-03-23T10:59:29;7.40;99.90
73955;DHT22;62306;52.516;13.290;2024-03-23T11:01:58;7.40;99.90
73955;DHT22;62306;52.516;13.290;2024-03-23T11:04:30;7.50;99.90
73955;DHT22;62306;52.516;13.290;2024-03-23T11:06:58;7.70;99.90
73955;DHT22;62306;52.516;13.290;2024-03-23T11:09:39;7.80;99.90
73955;DHT22;62306;52.516;13.290;2024-03-23T11:12:30;7.90;99.90
73955;DHT22;62306;52.516;13.290;2024-03-23T11:15:03;8.00;99.90
73955;DHT22;62306;52.516;13.290;2024-03-23T11:17:30;8.00;99.90
73955;DHT22;62306;52.516;13.290;2024-03-23T11:19:58;8.20;99.90
73955;DHT22;62306;52.516;13.290;2024-03-23T11:22:43;8.30;99.90
73955;DHT22;62306;52.516;13.290;2024-03-23T11:25:16;8.40;99.90
73955;DHT22;62306;52.516;13.290;2024-03-23T11:27:43;8.40;99.90
73955;DHT22;62306;52.516;13.290;2024-03-23T11:30:16;8.40;99.90
73955;DHT22;62306;52.516;13.290;2024-03-23T11:32:43;8.40;99.90
73955;DHT22;62306;52.516;13.290;2024-03-23T11:35:11;8.60;99.90
73955;DHT22;62306;52.516;13.290;2024-03-23T11:38:02;8.70;99.90
73955;DHT22;62306;52.516;13.290;2024-03-23T11:40:29;8.90;99.90
73955;DHT22;62306;52.516;13.290;2024-03-23T11:42:56;9.10;99.90
73955;DHT22;62306;52.516;13.290;2024-03-23T11:45:24;9.20;99.90
73955;DHT22;62306;52.516;13.290;2024-03-23T11:48:05;9.30;99.90
73955;DHT22;62306;52.516;13.290;2024-03-23T11:50:33;9.60;99.90
73955;DHT22;62306;52.516;13.290;2024-03-23T11:53:11;9.60;99.90
73955;DHT22;62306;52.516;13.290;2024-03-23T11:55:40;9.80;99.90
73955;DHT22;62306;52.516;13.290;2024-03-23T11:58:06;9.90;99.90
73955;DHT22;62306;52.516;13.290;2024-03-23T12:00:35;10.00;99.90
73955;DHT22;62306;52.516;13.290;2024-03-23T12:03:02;10.00;99.90
73955;DHT22;62306;52.516;13.290;2024-03-23T12:05:29;9.90;99.90
73955;DHT22;62306;52.516;13.290;2024-03-23T12:07:55;9.70;99.90
73955;DHT22;62306;52.516;13.290;2024-03-23T12:10:22;9.50;99.90
73955;DHT22;62306;52.516;13.290;2024-03-23T12:13:00;9.40;99.90
73955;DHT22;62306;52.516;13.290;2024-03-23T12:15:27;9.30;99.90
73955;DHT22;62306;52.516;13.290;2024-03-23T12:18:07;9.20;99.90
73955;DHT22;62306;52.516;13.290;2024-03-23T12:20:34;9.10;99.90
73955;DHT22;62306;52.516;13.290;2024-03-23T12:23:08;9.00;99.90
73955;DHT22;62306;52.516;13.290;2024-03-23T12:25:36;9.10;99.90
73955;DHT22;62306;52.516;13.290;2024-03-23T12:28:02;9.00;99.90
73955;DHT22;62306;52.516;13.290;2024-03-23T12:30:32;9.10;99.90
73955;DHT22;62306;52.516;13.290;2024-03-23T12:32:58;9.30;99.90
73955;DHT22;62306;52.516;13.290;2024-03-23T12:35:26;9.50;99.90
73955;DHT22;62306;52.516;13.290;2024-03-23T12:37:52;9.40;99.90
73955;DHT22;62306;52.516;13.290;2024-03-23T12:40:19;9.30;99.90
73955;DHT22;62306;52.516;13.290;2024-03-23T12:42:45;9.10;99.90
73955;DHT22;62306;52.516;13.290;2024-03-23T12:45:12;9.20;99.90
73955;DHT22;62306;52.516;13.290;2024-03-23T12:47:38;9.20;99.90
73955;DHT22;62306;52.516;13.290;2024-03-23T12:50:05;9.20;99.90
73955;DHT22;62306;52.516;13.290;2024-03-23T12:52:33;9.30;99.90
73955;DHT22;62306;52.516;13.290;2024-03-23T12:55:00;9.50;99.90
73955;DHT22;62306;52.516;13.290;2024-03-23T12:57:26;9.70;99.90
73955;DHT22;62306;52.516;13.290;2024-03-23T12:59:53;9.80;99.90
73955;DHT22;62306;52.516;13.290;2024-03-23T13:02:19;10.00;99.90
73955;DHT22;62306;52.516;13.290;2024-03-23T13:04:49;10.20;99.90
73955;DHT22;62306;52.516;13.290;2024-03-23T13:07:15;10.30;99.90
73955;DHT22;62306;52.516;13.290;2024-03-23T13:09:44;10.20;99.90
73955;DHT22;62306;52.516;13.290;2024-03-23T13:12:10;10.20;99.90
73955;DHT22;62306;52.516;13.290;2024-03-23T13:14:37;10.20;99.90
73955;DHT22;62306;52.516;13.290;2024-03-23T13:17:04;10.40;99.90
73955;DHT22;62306;52.516;13.290;2024-03-23T13:19:31;10.50;99.90
73955;DHT22;62306;52.516;13.290;2024-03-23T13:21:57;10.60;99.90
73955;DHT22;62306;52.516;13.290;2024-03-23T13:24:24;10.80;99.90
73955;DHT22;62306;52.516;13.290;2024-03-23T13:26:52;11.20;99.90
73955;DHT22;62306;52.516;13.290;2024-03-23T13:29:20;11.60;99.90
73955;DHT22;62306;52.516;13.290;2024-03-23T13:31:46;11.60;99.90
73955;DHT22;62306;52.516;13.290;2024-03-23T13:34:13;11.60;99.90
73955;DHT22;62306;52.516;13.290;2024-03-23T13:36:40;11.50;99.90
73955;DHT22;62306;52.516;13.290;2024-03-23T13:39:07;11.50;99.90
73955;DHT22;62306;52.516;13.290;2024-03-23T13:41:37;10.60;99.90
73955;DHT22;62306;52.516;13.290;2024-03-23T13:44:07;11.30;99.90
73955;DHT22;62306;52.516;13.290;2024-03-23T13:46:33;11.30;99.90
73955;DHT22;62306;52.516;13.290;2024-03-23T13:49:00;11.60;99.90
73955;DHT22;62306;52.516;13.290;2024-03-23T13:51:27;11.70;99.90
73955;DHT22;62306;52.516;13.290;2024-03-23T13:53:54;11.90;99.90
73955;DHT22;62306;52.516;13.290;2024-03-23T13:56:20;12.10;99.90
73955;DHT22;62306;52.516;13.290;2024-03-23T13:58:47;12.10;99.90
73955;DHT22;62306;52.516;13.290;2024-03-23T14:01:16;11.70;99.90
73955;DHT22;62306;52.516;13.290;2024-03-23T14:03:43;11.50;99.90
73955;DHT22;62306;52.516;13.290;2024-03-23T14:06:10;11.40;99.90
73955;DHT22;62306;52.516;13.290;2024-03-23T14:08:38;11.40;99.90
73955;DHT22;62306;52.516;13.290;2024-03-23T14:11:05;11.70;99.90
73955;DHT22;62306;52.516;13.290;2024-03-23T14:13:32;11.60;99.90
73955;DHT22;62306;52.516;13.290;2024-03-23T14:15:59;11.40;99.90
73955;DHT22;62306;52.516;13.290;2024-03-23T14:18:27;11.10;99.90
73955;DHT22;62306;52.516;13.290;2024-03-23T14:20:57;10.90;99.90
73955;DHT22;62306;52.516;13.290;2024-03-23T14:23:25;10.70;99.90
73955;DHT22;62306;52.516;13.290;2024-03-23T14:25:53;10.40;99.90
73955;DHT22;62306;52.516;13.290;2024-03-23T14:28:22;10.10;99.90
73955;DHT22;62306;52.516;13.290;2024-03-23T14:30:48;10.00;99.90
73955;DHT22;62306;52.516;13.290;2024-03-23T14:33:15;10.00;99.90
73955;DHT22;62306;52.516;13.290;2024-03-23T14:35:42;9.80;99.90
73955;DHT22;62306;52.516;13.290;2024-03-23T14:38:09;9.70;99.90
73955;DHT22;62306;52.516;13.290;2024-03-23T14:40:35;9.60;99.90
73955;DHT22;62306;52.516;13.290;2024-03-23T14:43:03;9.40;99.90
73955;DHT22;62306;52.516;13.290;2024-03-23T14:45:29;9.30;99.90
73955;DHT22;62306;52.516;13.290;2024-03-23T14:47:56;9.00;99.90
73955;DHT22;62306;52.516;13.290;2024-03-23T14:50:23;8.60;99.90
73955;DHT22;62306;52.516;13.290;2024-03-23T14:52:52;8.20;99.90
73955;DHT22;62306;52.516;13.290;2024-03-23T14:55:18;7.90;99.90
73955;DHT22;62306;52.516;13.290;2024-03-23T14:57:45;7.80;99.90
73955;DHT22;62306;52.516;13.290;2024-03-23T15:00:11;7.80;99.90
73955;DHT22;62306;52.516;13.290;2024-03-23T15:02:39;8.90;99.90
73955;DHT22;62306;52.516;13.290;2024-03-23T15:05:05;7.90;99.90
73955;DHT22;62306;52.516;13.290;2024-03-23T15:07:35;7.80;99.90
73955;DHT22;62306;52.516;13.290;2024-03-23T15:10:03;8.40;99.90
73955;DHT22;62306;52.516;13.290;2024-03-23T15:12:30;8.80;99.90
73955;DHT22;62306;52.516;13.290;2024-03-23T15:14:58;9.10;99.90
73955;DHT22;62306;52.516;13.290;2024-03-23T15:17:25;9.20;99.90
73955;DHT22;62306;52.516;13.290;2024-03-23T15:19:51;9.20;99.90
73955;DHT22;62306;52.516;13.290;2024-03-23T15:22:19;9.10;99.90
73955;DHT22;62306;52.516;13.290;2024-03-23T15:24:45;9.10;99.90
73955;DHT22;62306;52.516;13.290;2024-03-23T15:27:14;9.10;99.90
73955;DHT22;62306;52.516;13.290;2024-03-23T15:29:40;8.90;99.90
73955;DHT22;62306;52.516;13.290;2024-03-23T15:32:10;8.70;99.90
73955;DHT22;62306;52.516;13.290;2024-03-23T15:34:36;8.60;99.90
73955;DHT22;62306;52.516;13.290;2024-03-23T15:37:03;8.50;99.90
73955;DHT22;62306;52.516;13.290;2024-03-23T15:39:30;8.50;99.90
73955;DHT22;62306;52.516;13.290;2024-03-23T15:41:56;8.60;99.90
73955;DHT22;62306;52.516;13.290;2024-03-23T15:44:24;8.60;99.90
73955;DHT22;62306;52.516;13.290;2024-03-23T15:46:51;8.70;99.90
73955;DHT22;62306;52.516;13.290;2024-03-23T15:49:16;8.70;99.90
73955;DHT22;62306;52.516;13.290;2024-03-23T15:51:43;8.60;99.90
73955;DHT22;62306;52.516;13.290;2024-03-23T15:54:09;8.60;99.90
73955;DHT22;62306;52.516;13.290;2024-03-23T15:56:36;8.60;99.90
73955;DHT22;62306;52.516;13.290;2024-03-23T15:59:02;8.50;99.90
73955;DHT22;62306;52.516;13.290;2024-03-23T16:01:33;8.50;99.90
73955;DHT22;62306;52.516;13.290;2024-03-23T16:04:00;8.50;99.90
73955;DHT22;62306;52.516;13.290;2024-03-23T16:06:27;8.60;99.90
73955;DHT22;62306;52.516;13.290;2024-03-23T16:08:53;8.50;99.90
73955;DHT22;62306;52.516;13.290;2024-03-23T16:11:20;8.50;99.90
73955;DHT22;62306;52.516;13.290;2024-03-23T16:13:46;8.50;99.90
73955;DHT22;62306;52.516;13.290;2024-03-23T16:16:13;8.50;99.90
73955;DHT22;62306;52.516;13.290;2024-03-23T16:18:40;8.60;99.90
73955;DHT22;62306;52.516;13.290;2024-03-23T16:21:09;8.50;99.90
73955;DHT22;62306;52.516;13.290;2024-03-23T16:23:36;8.50;99.90
73955;DHT22;62306;52.516;13.290;2024-03-23T16:26:04;8.40;99.90